Alexandria Fire 201 — AFD201 — position and weather

sailwx.info

Track history (hours):
 
Tides and Currents Weather Stations Pressure Air Temp Water Temp Dewpoint Dewpoint Depression Visibility Wind Speed Wind Dir Waves Ship Positions

Alexandria Fire 201

Last reported at 2018-Jul-22 14:51 UTC. Time now 2018-Jul-23 11:42 UTC.
Position N 38°48' W 077°02'.

Length 16 m.

Type: SAR. MMSI: 338162372.

Date/timePositionNaut miles runAvg speedWind from/ knotsBaromVisibWave heightAir tempDewpointWater temp
2018-Jul-22 14:51N 38°48' W 077°02'0 0.0
2018-Jul-22 14:30N 38°48' W 077°02'0 0.2
2018-Jul-22 13:56N 38°48' W 077°02'0 0.0
2018-Jul-22 13:27N 38°48' W 077°02'1 2.4
2018-Jul-22 12:58N 38°49' W 077°02'0 0.0
2018-Jul-22 12:29N 38°49' W 077°02'1 0.0
2018-Jul-20 20:06N 38°48' W 077°02'0 0.0
2018-Jul-20 19:57N 38°48' W 077°02'0 0.0
2018-Jul-20 19:30N 38°48' W 077°02'0 0.0
2018-Jul-20 19:00N 38°48' W 077°02'0 0.0
2018-Jul-20 18:30N 38°48' W 077°02'0 0.0
2018-Jul-19 20:20N 38°48' W 077°02'0 0.6
2018-Jul-19 19:58N 38°48' W 077°02'2 1.3
2018-Jul-19 18:22N 38°46' W 077°02'2 0.1
2018-Jul-18 23:30N 38°48' W 077°02'0 0.0
2018-Jul-18 18:58N 38°48' W 077°02'1 2.4
2018-Jul-18 18:28N 38°47' W 077°02'1 2.3
2018-Jul-18 17:51N 38°49' W 077°02'3 8.0
2018-Jul-18 17:30N 38°51' W 077°01'3 4.5
2018-Jul-18 16:57N 38°49' W 077°02'0 0.0
2018-Jul-17 17:12N 38°48' W 077°02'0 0.0
2018-Jul-15 18:37N 38°48' W 077°02'0 0.0
2018-Jul-15 18:25N 38°48' W 077°02'0 0.0
2018-Jul-15 17:55N 38°48' W 077°02'0 0.0
2018-Jul-15 14:37N 38°48' W 077°02'  
2018-Jul-12 23:36N 38°48' W 077°02'0 5.1
2018-Jul-12 23:30N 38°49' W 077°02'0 0.1
2018-Jul-12 19:58N 38°48' W 077°02'1 1.3
2018-Jul-12 19:29N 38°48' W 077°02'1 2.0
2018-Jul-12 18:58N 38°47' W 077°01'0 0.0
2018-Jul-12 18:28N 38°47' W 077°01'0 0.0
2018-Jul-12 17:59N 38°47' W 077°01'1 0.6
2018-Jul-12 16:01N 38°46' W 077°02'133.2
2018-Jul-12 16:00N 38°47' W 077°02'1 1.3
2018-Jul-12 15:27N 38°48' W 077°02'1 1.7
2018-Jul-12 14:59N 38°48' W 077°02'  
Track history (hours):
 
Tides and Currents Weather Stations Pressure Air Temp Water Temp Dewpoint Dewpoint Depression Visibility Wind Speed Wind Dir Waves Ship Positions

Alexandria Fire 201

Last reported at 2018-Jul-22 14:51 UTC. Time now 2018-Jul-23 11:42 UTC.
Position N 38°48' W 077°02'.

Length 16 m.

Type: SAR. MMSI: 338162372.

Date/timePositionNaut miles runAvg speedWind from/ knotsBaromVisibWave heightAir tempDewpointWater temp
2018-Jul-22 14:51N 38°48' W 077°02'0 0.0
2018-Jul-22 14:30N 38°48' W 077°02'0 0.2
2018-Jul-22 13:56N 38°48' W 077°02'0 0.0
2018-Jul-22 13:27N 38°48' W 077°02'1 2.4
2018-Jul-22 12:58N 38°49' W 077°02'0 0.0
2018-Jul-22 12:29N 38°49' W 077°02'1 0.0
2018-Jul-20 20:06N 38°48' W 077°02'0 0.0
2018-Jul-20 19:57N 38°48' W 077°02'0 0.0
2018-Jul-20 19:30N 38°48' W 077°02'0 0.0
2018-Jul-20 19:00N 38°48' W 077°02'0 0.0
2018-Jul-20 18:30N 38°48' W 077°02'0 0.0
2018-Jul-19 20:20N 38°48' W 077°02'0 0.6
2018-Jul-19 19:58N 38°48' W 077°02'2 1.3
2018-Jul-19 18:22N 38°46' W 077°02'2 0.1
2018-Jul-18 23:30N 38°48' W 077°02'0 0.0
2018-Jul-18 18:58N 38°48' W 077°02'1 2.4
2018-Jul-18 18:28N 38°47' W 077°02'1 2.3
2018-Jul-18 17:51N 38°49' W 077°02'3 8.0
2018-Jul-18 17:30N 38°51' W 077°01'3 4.5
2018-Jul-18 16:57N 38°49' W 077°02'0 0.0
2018-Jul-17 17:12N 38°48' W 077°02'0 0.0
2018-Jul-15 18:37N 38°48' W 077°02'0 0.0
2018-Jul-15 18:25N 38°48' W 077°02'0 0.0
2018-Jul-15 17:55N 38°48' W 077°02'0 0.0
2018-Jul-15 14:37N 38°48' W 077°02'  
2018-Jul-12 23:36N 38°48' W 077°02'0 5.1
2018-Jul-12 23:30N 38°49' W 077°02'0 0.1
2018-Jul-12 19:58N 38°48' W 077°02'1 1.3
2018-Jul-12 19:29N 38°48' W 077°02'1 2.0
2018-Jul-12 18:58N 38°47' W 077°01'0 0.0
2018-Jul-12 18:28N 38°47' W 077°01'0 0.0
2018-Jul-12 17:59N 38°47' W 077°01'1 0.6
2018-Jul-12 16:01N 38°46' W 077°02'133.2
2018-Jul-12 16:00N 38°47' W 077°02'1 1.3
2018-Jul-12 15:27N 38°48' W 077°02'1 1.7
2018-Jul-12 14:59N 38°48' W 077°02'  

Dump ship's entire track history